Time;durP1;ratioP1;P1;durP2;ratioP2;P2;SDS_P1;SDS_P2;PMS_P1;PMS_P2;Temp;Humidity;BMP_temperature;BMP_pressure;BME280_temperature;BME280_humidity;BME280_pressure;Samples;Min_cycle;Max_cycle;Signal;HPM_P1;HPM_P2
2023/03/05 00:01:43;;;;;;;1.25;1.15;;;;;;;4.49;66.55;99380.53;5117815;28;20409;-64
2023/03/05 00:04:15;;;;;;;5.32;1.75;;;;;;;4.41;66.55;99392.19;5117676;28;20043;-64
2023/03/05 00:06:43;;;;;;;0.63;0.63;;;;;;;4.37;66.73;99385.34;5117713;28;20039;-64
2023/03/05 00:09:13;;;;;;;1.13;1.10;;;;;;;4.41;66.88;99382.09;5116009;28;20089;-64
2023/03/05 00:11:42;;;;;;;1.48;1.38;;;;;;;4.45;66.72;99378.78;5117189;28;20459;-64
2023/03/05 00:14:11;;;;;;;1.10;1.07;;;;;;;4.40;66.69;99385.44;5117290;28;20067;-64
2023/03/05 00:16:41;;;;;;;1.17;0.95;;;;;;;4.40;66.86;99385.44;5117220;28;20039;-65
2023/03/05 00:19:11;;;;;;;1.20;1.13;;;;;;;4.40;66.99;99382.91;5117134;28;20059;-65
2023/03/05 00:21:41;;;;;;;;;;;;;;;4.42;66.75;99391.34;5117864;27;20048;-64
2023/03/05 00:24:13;;;;;;;0.63;0.63;;;;;;;4.42;66.87;99378.72;5117028;28;19959;-64
2023/03/05 00:26:43;;;;;;;0.47;0.47;;;;;;;4.46;66.67;99380.50;5116097;28;20062;-65
2023/03/05 00:29:14;;;;;;;;;;;;;;;4.44;66.69;99377.94;5117545;28;20036;-64
2023/03/05 00:31:46;;;;;;;0.35;0.35;;;;;;;4.45;66.44;99368.69;5116129;28;19920;-64
2023/03/05 00:34:18;;;;;;;0.73;0.73;;;;;;;4.41;66.63;99366.94;5117162;28;20051;-65
2023/03/05 00:36:50;;;;;;;0.90;0.90;;;;;;;4.41;66.53;99366.94;5115697;28;20100;-65
2023/03/05 00:39:21;;;;;;;1.10;1.10;;;;;;;4.44;66.93;99372.88;5116806;28;20044;-65
2023/03/05 00:41:50;;;;;;;0.50;0.50;;;;;;;4.41;66.56;99372.84;5115627;28;20054;-64
2023/03/05 00:44:19;;;;;;;1.70;1.60;;;;;;;4.40;67.10;99365.22;5116997;28;20093;-65
2023/03/05 00:46:50;;;;;;;1.13;1.08;;;;;;;4.38;66.54;99360.16;5115464;28;20036;-65
2023/03/05 00:49:19;;;;;;;1.42;0.95;;;;;;;4.38;66.71;99356.75;5116856;28;20031;-64
2023/03/05 00:51:47;;;;;;;0.25;0.25;;;;;;;4.40;67.12;99355.13;5115242;28;20036;-64
2023/03/05 00:54:16;;;;;;;0.43;0.43;;;;;;;4.43;66.59;99355.19;5116832;28;20040;-64
2023/03/05 00:56:46;;;;;;;18.23;1.45;;;;;;;4.37;66.58;99355.91;5115612;28;20438;-65
2023/03/05 00:59:15;;;;;;;0.88;0.60;;;;;;;4.40;67.16;99355.13;5116393;27;20047;-64
2023/03/05 01:01:44;;;;;;;0.40;0.40;;;;;;;4.42;66.88;99348.41;5116271;28;20554;-64
2023/03/05 01:04:14;;;;;;;1.80;1.20;;;;;;;4.43;67.21;99345.06;5115974;28;20065;-64
2023/03/05 01:06:45;;;;;;;0.70;0.70;;;;;;;4.45;67.23;99345.94;5116273;28;20283;-64
2023/03/05 01:09:14;;;;;;;0.60;0.60;;;;;;;4.47;67.13;99341.78;5116440;28;20477;-64
2023/03/05 01:11:43;;;;;;;1.30;1.20;;;;;;;4.44;66.81;99341.72;5114739;28;20087;-65
2023/03/05 01:14:12;;;;;;;0.88;0.88;;;;;;;4.42;66.74;99339.16;5116131;28;20093;-64
2023/03/05 01:16:41;;;;;;;1.00;0.93;;;;;;;4.38;66.34;99339.09;5114901;28;20043;-64
2023/03/05 01:19:11;;;;;;;0.65;0.65;;;;;;;4.42;67.12;99338.31;5116026;28;20079;-64
2023/03/05 01:21:42;;;;;;;0.95;0.93;;;;;;;4.40;66.13;99339.94;5115850;28;20036;-64
2023/03/05 01:24:11;;;;;;;1.40;1.30;;;;;;;4.43;66.42;99335.81;5115966;28;20051;-64
2023/03/05 01:26:39;;;;;;;16.67;1.47;;;;;;;4.44;66.81;99336.69;5116198;28;20036;-64
2023/03/05 01:29:08;;;;;;;0.70;0.70;;;;;;;4.42;66.23;99330.72;5115765;28;20123;-64
2023/03/05 01:31:37;;;;;;;9.57;0.90;;;;;;;4.43;66.70;99334.97;5116083;28;20063;-64
2023/03/05 01:34:06;;;;;;;6.93;1.90;;;;;;;4.42;66.21;99335.78;5116025;28;20036;-65
2023/03/05 01:36:35;;;;;;;1.23;1.15;;;;;;;4.44;66.05;99337.50;5115960;28;20349;-64
2023/03/05 01:39:05;;;;;;;2.47;1.52;;;;;;;4.45;65.79;99338.38;5115655;28;20047;-64
2023/03/05 01:41:35;;;;;;;0.25;0.25;;;;;;;4.44;66.17;99336.69;5115629;28;20043;-64
2023/03/05 01:44:04;;;;;;;0.30;0.30;;;;;;;4.45;66.78;99335.84;5115731;28;20519;-64
2023/03/05 01:46:35;;;;;;;0.40;0.40;;;;;;;4.49;66.06;99330.00;5114337;28;20093;-65
2023/03/05 01:49:15;;;;;;;1.23;1.10;;;;;;;4.46;66.28;99332.50;5114230;28;20081;-64
2023/03/05 01:51:52;;;;;;;0.98;0.98;;;;;;;4.45;66.24;99328.25;5115704;28;20134;-64
2023/03/05 01:54:26;;;;;;;0.40;0.40;;;;;;;4.48;66.43;99335.91;5115335;28;20055;-65
2023/03/05 01:56:59;;;;;;;0.47;0.47;;;;;;;4.48;66.36;99338.44;5114364;28;20043;-65
2023/03/05 01:59:29;;;;;;;1.00;0.98;;;;;;;4.46;66.08;99329.97;5115580;28;20051;-65
2023/03/05 02:01:59;;;;;;;1.95;1.48;;;;;;;4.46;65.83;99332.50;5115159;28;20494;-65
2023/03/05 02:04:34;;;;;;;0.60;0.60;;;;;;;4.47;65.83;99331.66;5115410;27;20073;-64
2023/03/05 02:07:04;;;;;;;0.70;0.70;;;;;;;4.52;66.51;99335.13;5114199;28;20497;-64
2023/03/05 02:09:38;;;;;;;1.15;1.05;;;;;;;4.51;66.72;99338.50;5113759;28;20486;-64
2023/03/05 02:12:09;;;;;;;2.05;1.48;;;;;;;4.50;66.91;99326.66;5114884;28;20446;-65
2023/03/05 02:14:39;;;;;;;2.58;1.65;;;;;;;4.54;65.98;99330.94;5114775;28;20079;-64
2023/03/05 02:17:08;;;;;;;1.95;1.85;;;;;;;4.53;66.11;99336.84;5114308;28;20497;-64
2023/03/05 02:19:48;;;;;;;1.10;1.08;;;;;;;4.54;66.52;99325.88;5115140;28;20097;-64
2023/03/05 02:22:21;;;;;;;0.85;0.85;;;;;;;4.59;66.22;99336.94;5114761;28;20063;-64
2023/03/05 02:24:50;;;;;;;0.68;0.68;;;;;;;4.59;66.50;99326.81;5114682;28;20500;-64
2023/03/05 02:27:23;;;;;;;1.10;1.08;;;;;;;4.56;66.23;99332.66;5114726;28;20052;-65
2023/03/05 02:29:52;;;;;;;0.85;0.85;;;;;;;4.52;65.83;99330.94;5114970;28;20534;-64
2023/03/05 02:32:21;;;;;;;;;;;;;;;4.54;65.97;99320.84;5114185;28;20392;-64
2023/03/05 02:34:50;;;;;;;0.20;0.20;;;;;;;4.52;66.28;99325.00;5113741;28;19924;-64
2023/03/05 02:37:21;;;;;;;;;;;;;;;4.53;66.12;99327.59;5113751;28;20035;-65
2023/03/05 02:39:52;;;;;;;0.65;0.65;;;;;;;4.52;65.96;99312.38;5114546;28;19932;-65
2023/03/05 02:42:22;;;;;;;1.52;1.27;;;;;;;4.47;65.95;99322.41;5114465;28;20050;-65
2023/03/05 02:44:51;;;;;;;0.95;0.95;;;;;;;4.44;66.54;99319.00;5113232;28;20043;-65
2023/03/05 02:47:20;;;;;;;;;;;;;;;4.41;66.24;99312.22;5114725;28;20134;-64
2023/03/05 02:49:49;;;;;;;1.08;1.08;;;;;;;4.40;66.68;99319.75;5113126;28;19920;-65
2023/03/05 02:52:19;;;;;;;0.60;0.60;;;;;;;4.40;66.17;99307.97;5113123;28;20040;-65
2023/03/05 02:54:49;;;;;;;0.70;0.70;;;;;;;4.39;66.12;99307.97;5113337;28;20073;-65
2023/03/05 02:57:18;;;;;;;0.32;0.32;;;;;;;4.40;66.28;99304.59;5114755;28;20445;-64
2023/03/05 02:59:47;;;;;;;0.43;0.43;;;;;;;4.42;66.36;99308.00;5114207;28;20064;-64
2023/03/05 03:02:17;;;;;;;0.20;0.20;;;;;;;4.42;66.16;99308.00;5113578;28;20046;-64
2023/03/05 03:04:46;;;;;;;0.50;0.50;;;;;;;4.40;66.00;99313.03;5114504;28;20396;-65
2023/03/05 03:07:15;;;;;;;1.40;0.93;;;;;;;4.43;66.38;99304.66;5114009;28;20044;-65
2023/03/05 03:09:44;;;;;;;0.40;0.40;;;;;;;4.48;66.99;99308.13;5114055;28;20303;-65
2023/03/05 03:12:15;;;;;;;0.88;0.88;;;;;;;4.50;66.44;99304.78;5113801;28;20051;-65
2023/03/05 03:14:44;;;;;;;1.95;1.83;;;;;;;4.50;66.34;99303.94;5114373;28;20122;-65
2023/03/05 03:17:15;;;;;;;0.95;0.95;;;;;;;4.53;66.86;99306.50;5113922;28;20043;-65
2023/03/05 03:19:45;;;;;;;0.40;0.40;;;;;;;4.40;66.08;99279.31;5114070;28;20092;-64
2023/03/05 03:22:16;;;;;;;0.40;0.40;;;;;;;4.52;66.08;99299.75;5114328;28;20066;-65
2023/03/05 03:24:44;;;;;;;0.60;0.60;;;;;;;4.54;66.57;99303.16;5114221;28;20042;-64
2023/03/05 03:27:14;;;;;;;0.40;0.40;;;;;;;4.47;66.61;99294.63;5115594;28;20042;-65
2023/03/05 03:29:43;;;;;;;0.40;0.40;;;;;;;4.45;66.24;99292.91;5118514;28;20047;-65
2023/03/05 03:32:12;;;;;;;1.20;1.10;;;;;;;4.45;66.43;99291.22;5118006;28;20087;-65
2023/03/05 03:34:41;;;;;;;1.42;1.33;;;;;;;4.44;66.50;99281.09;5118058;28;20071;-65
2023/03/05 03:37:09;;;;;;;2.30;1.25;;;;;;;4.47;66.36;99283.66;5118355;28;20049;-65
2023/03/05 03:39:39;;;;;;;1.48;1.38;;;;;;;4.49;66.33;99287.06;5118156;28;20063;-65
2023/03/05 03:42:08;;;;;;;0.80;0.80;;;;;;;4.47;65.92;99291.25;5117874;28;20045;-65
2023/03/05 03:44:38;;;;;;;3.28;1.83;;;;;;;4.47;65.98;99283.66;5118148;28;20118;-65
2023/03/05 03:47:07;;;;;;;0.75;0.75;;;;;;;4.47;65.79;99286.19;5118164;28;20047;-65
2023/03/05 03:49:35;;;;;;;1.70;1.60;;;;;;;4.45;65.35;99288.69;5117789;28;20035;-64
2023/03/05 03:52:04;;;;;;;3.38;1.13;;;;;;;4.43;65.79;99292.03;5117657;28;20043;-64
2023/03/05 03:54:33;;;;;;;4.22;1.52;;;;;;;4.40;65.72;99284.38;5117653;28;20092;-65
2023/03/05 03:57:03;;;;;;;0.47;0.47;;;;;;;4.32;66.58;99285.94;5117615;28;20497;-64
2023/03/05 03:59:32;;;;;;;0.50;0.50;;;;;;;4.26;66.83;99283.28;5117514;28;20089;-65
2023/03/05 04:02:03;;;;;;;0.30;0.30;;;;;;;4.23;67.40;99280.69;5117804;28;20117;-65
2023/03/05 04:04:31;;;;;;;0.60;0.60;;;;;;;4.15;67.68;99277.22;5117828;28;20489;-64
2023/03/05 04:07:00;;;;;;;0.57;0.57;;;;;;;4.15;68.53;99277.22;5117727;28;20046;-64
2023/03/05 04:09:29;;;;;;;0.40;0.40;;;;;;;4.10;68.87;99269.56;5117389;28;20064;-65
2023/03/05 04:11:58;;;;;;;0.65;0.65;;;;;;;4.04;68.55;99280.38;5117077;28;20075;-65
2023/03/05 04:14:27;;;;;;;0.20;0.20;;;;;;;4.01;68.46;99275.28;5117288;28;20039;-65
2023/03/05 04:16:56;;;;;;;0.50;0.40;;;;;;;3.97;69.32;99273.53;5117801;28;20126;-65
2023/03/05 04:19:27;;;;;;;0.70;0.70;;;;;;;3.96;68.96;99270.94;5117183;28;20497;-64
2023/03/05 04:21:56;;;;;;;0.20;0.20;;;;;;;3.95;69.12;99275.16;5117205;28;20058;-65
2023/03/05 04:24:25;;;;;;;0.30;0.30;;;;;;;3.93;69.73;99271.78;5117127;28;20048;-65
2023/03/05 04:26:54;;;;;;;0.23;0.23;;;;;;;3.94;69.69;99278.50;5117082;28;20093;-64
2023/03/05 04:29:22;;;;;;;0.60;0.60;;;;;;;3.91;69.13;99273.38;5117063;28;20072;-64
2023/03/05 04:31:51;;;;;;;0.50;0.50;;;;;;;3.87;70.17;99275.84;5116883;28;20050;-65
2023/03/05 04:34:20;;;;;;;1.40;1.30;;;;;;;3.86;70.13;99271.63;5116958;28;20464;-65
2023/03/05 04:36:51;;;;;;;5.43;1.65;;;;;;;3.80;69.53;99269.81;5116887;28;20036;-64
2023/03/05 04:39:21;;;;;;;0.40;0.40;;;;;;;3.74;70.26;99264.63;5116436;27;20067;-65
2023/03/05 04:41:50;;;;;;;0.57;0.57;;;;;;;3.75;70.33;99261.31;5116664;28;20127;-64
2023/03/05 04:44:18;;;;;;;1.08;0.98;;;;;;;3.74;70.32;99266.34;5117107;28;20126;-65
2023/03/05 04:46:48;;;;;;;0.65;0.65;;;;;;;3.71;70.21;99259.56;5116645;28;20043;-64
2023/03/05 04:49:16;;;;;;;1.52;1.42;;;;;;;3.68;71.01;99262.00;5116610;28;20054;-64
2023/03/05 04:51:45;;;;;;;0.20;0.20;;;;;;;3.68;71.12;99256.97;5116453;28;20551;-65
2023/03/05 04:54:15;;;;;;;0.73;0.73;;;;;;;3.68;71.20;99264.53;5116822;28;20507;-65
2023/03/05 04:56:44;;;;;;;0.43;0.43;;;;;;;3.68;70.82;99262.00;5116871;28;20048;-65
2023/03/05 04:59:13;;;;;;;5.47;1.98;;;;;;;3.69;71.43;99265.41;5116700;28;20035;-65
2023/03/05 05:01:42;;;;;;;0.43;0.43;;;;;;;3.63;70.93;99271.16;5116717;28;20039;-64
2023/03/05 05:04:11;;;;;;;1.17;1.10;;;;;;;3.60;71.69;99266.03;5116366;28;20044;-64
2023/03/05 05:06:39;;;;;;;0.50;0.50;;;;;;;3.59;71.60;99263.50;5116696;28;20123;-65
2023/03/05 05:09:08;;;;;;;0.52;0.52;;;;;;;3.57;72.07;99266.00;5116282;28;20040;-65
2023/03/05 05:11:39;;;;;;;0.60;0.60;;;;;;;3.56;71.38;99261.78;5115836;28;20043;-64
2023/03/05 05:14:08;;;;;;;1.55;1.45;;;;;;;3.55;71.88;99267.63;5116160;28;20047;-64
2023/03/05 05:16:37;;;;;;;0.88;0.88;;;;;;;3.55;71.66;99267.63;5116419;28;20489;-64
2023/03/05 05:19:07;;;;;;;2.28;0.93;;;;;;;3.52;72.24;99267.59;5116071;28;20112;-64
2023/03/05 05:21:36;;;;;;;4.13;1.70;;;;;;;3.57;72.31;99268.53;5116452;28;20049;-65
2023/03/05 05:24:05;;;;;;;0.73;0.63;;;;;;;3.56;71.75;99264.28;5116281;28;20058;-64
2023/03/05 05:26:34;;;;;;;1.17;1.08;;;;;;;3.57;71.92;99272.72;5115923;28;20043;-64
2023/03/05 05:29:04;;;;;;;0.40;0.40;;;;;;;3.57;72.16;99270.19;5115892;28;20042;-64
2023/03/05 05:31:33;;;;;;;0.73;0.73;;;;;;;3.57;73.02;99275.25;5115703;28;20067;-64
2023/03/05 05:34:02;;;;;;;1.15;1.13;;;;;;;3.56;72.91;99273.53;5115734;28;20040;-64
2023/03/05 05:36:31;;;;;;;1.83;0.97;;;;;;;3.54;73.23;99275.16;5116027;28;20035;-64
2023/03/05 05:38:59;;;;;;;1.73;1.40;;;;;;;3.52;72.36;99272.63;5115670;28;20043;-65
2023/03/05 05:41:29;;;;;;;1.50;1.35;;;;;;;3.51;72.65;99281.00;5115586;28;20036;-65
2023/03/05 05:43:58;;;;;;;0.70;0.70;;;;;;;3.53;73.43;99279.34;5115789;28;20036;-64
2023/03/05 05:46:28;;;;;;;0.93;0.93;;;;;;;3.54;73.74;99282.75;5115480;28;20085;-64
2023/03/05 05:48:57;;;;;;;3.67;1.75;;;;;;;3.52;73.55;99276.81;5115516;28;20050;-64
2023/03/05 05:51:26;;;;;;;0.47;0.47;;;;;;;3.50;73.08;99284.38;5114558;28;20397;-64
2023/03/05 05:53:55;;;;;;;3.23;2.93;;;;;;;3.50;73.14;99284.38;5115633;28;20118;-64
2023/03/05 05:56:24;;;;;;;0.85;0.85;;;;;;;3.52;73.01;99281.84;5115319;28;20065;-64
2023/03/05 05:58:53;;;;;;;0.40;0.40;;;;;;;3.52;73.11;99281.84;5115354;28;20085;-64
2023/03/05 06:01:25;;;;;;;1.65;1.55;;;;;;;3.47;73.18;99270.81;5115161;28;20067;-64
2023/03/05 06:03:56;;;;;;;0.55;0.55;;;;;;;3.51;73.55;99288.56;5115145;28;20047;-64
2023/03/05 06:06:26;;;;;;;1.15;1.13;;;;;;;3.55;73.82;99292.03;5115467;28;20065;-64
2023/03/05 06:08:56;;;;;;;4.88;1.90;;;;;;;3.53;73.25;99288.63;5115004;28;20071;-64
2023/03/05 06:11:25;;;;;;;0.75;0.75;;;;;;;3.53;74.03;99298.72;5114601;28;20271;-64
2023/03/05 06:13:54;;;;;;;0.40;0.40;;;;;;;3.44;74.22;99284.22;5114922;28;20110;-65
2023/03/05 06:16:24;;;;;;;0.40;0.40;;;;;;;3.49;73.83;99302.81;5114795;28;20050;-65
2023/03/05 06:18:55;;;;;;;;;;;;;;;3.44;74.38;99294.31;5115351;28;20085;-64
2023/03/05 06:21:24;;;;;;;0.35;0.35;;;;;;;3.40;74.05;99292.56;5114797;28;19919;-64
2023/03/05 06:23:53;;;;;;;1.23;1.13;;;;;;;3.40;74.13;99292.56;5114761;28;20074;-64
2023/03/05 06:26:23;;;;;;;1.43;1.37;;;;;;;3.39;74.00;99300.91;5114760;28;20122;-64
2023/03/05 06:28:52;;;;;;;0.50;0.50;;;;;;;3.38;74.69;99299.25;5114695;28;20058;-64
2023/03/05 06:31:24;;;;;;;0.57;0.57;;;;;;;3.39;75.03;99295.88;5114954;28;20076;-64
2023/03/05 06:33:57;;;;;;;1.38;1.27;;;;;;;3.37;75.23;99302.56;5114912;28;20481;-64
2023/03/05 06:36:26;;;;;;;0.32;0.32;;;;;;;3.35;75.47;99301.69;5114887;28;20567;-64
2023/03/05 06:38:55;;;;;;;0.40;0.40;;;;;;;3.37;75.02;99303.41;5114562;28;20044;-64
2023/03/05 06:41:26;;;;;;;0.68;0.68;;;;;;;3.39;75.13;99295.88;5114423;28;20040;-64
2023/03/05 06:43:59;;;;;;;1.13;1.08;;;;;;;3.39;74.75;99291.69;5114756;28;20569;-64
2023/03/05 06:46:29;;;;;;;1.48;1.00;;;;;;;3.42;75.18;99288.38;5114707;28;20048;-65
2023/03/05 06:49:01;;;;;;;0.60;0.60;;;;;;;3.41;75.57;99284.16;5114929;28;20058;-64
2023/03/05 06:51:32;;;;;;;2.30;1.05;;;;;;;3.44;75.70;99285.88;5114690;28;20130;-64
2023/03/05 06:54:03;;;;;;;1.98;1.77;;;;;;;3.53;75.47;99304.59;5114194;28;20481;-65
2023/03/05 06:56:32;;;;;;;1.60;1.50;;;;;;;3.59;75.48;99299.69;5114260;28;20077;-64
2023/03/05 06:59:00;;;;;;;3.53;1.50;;;;;;;3.62;75.37;99296.38;5114169;28;20497;-65
2023/03/05 07:01:29;;;;;;;1.30;1.20;;;;;;;3.65;75.07;99296.41;5114139;28;20040;-64
2023/03/05 07:04:01;;;;;;;1.33;0.83;;;;;;;3.71;75.62;99301.59;5114513;28;20031;-64
2023/03/05 07:06:34;;;;;;;1.90;1.80;;;;;;;3.73;75.37;99287.34;5114121;28;20047;-64
2023/03/05 07:09:04;;;;;;;4.72;3.45;;;;;;;3.77;75.60;99304.22;5114137;28;20069;-64
2023/03/05 07:11:34;;;;;;;1.23;1.13;;;;;;;3.69;75.01;99296.53;5113902;28;20075;-65
2023/03/05 07:14:04;;;;;;;0.80;0.80;;;;;;;3.79;75.48;99303.44;5114021;28;20096;-66
2023/03/05 07:16:34;;;;;;;0.52;0.52;;;;;;;3.83;75.72;99305.22;5114248;28;20039;-65
2023/03/05 07:19:06;;;;;;;1.40;1.30;;;;;;;3.79;75.74;99293.34;5114047;28;20052;-65
2023/03/05 07:21:36;;;;;;;1.15;1.13;;;;;;;3.80;76.09;99295.06;5114061;28;20139;-65
2023/03/05 07:24:08;;;;;;;2.42;2.22;;;;;;;3.85;75.92;99307.75;5114272;28;20466;-66
2023/03/05 07:26:37;;;;;;;0.73;0.73;;;;;;;3.84;76.05;99303.56;5113909;28;20444;-65
2023/03/05 07:29:06;;;;;;;0.50;0.50;;;;;;;3.88;75.76;99293.53;5113810;28;20040;-65
2023/03/05 07:31:34;;;;;;;0.82;0.82;;;;;;;3.90;75.97;99311.22;5114203;28;20048;-65
2023/03/05 07:34:05;;;;;;;0.20;0.20;;;;;;;3.89;76.06;99302.81;5113820;28;20040;-65
2023/03/05 07:36:34;;;;;;;0.30;0.30;;;;;;;3.90;76.44;99294.44;5112664;28;20039;-65
2023/03/05 07:39:05;;;;;;;0.63;0.63;;;;;;;3.94;76.41;99293.66;5113807;28;20044;-65
2023/03/05 07:41:34;;;;;;;0.40;0.40;;;;;;;4.02;76.69;99292.13;5113722;28;20082;-65
2023/03/05 07:44:03;;;;;;;3.47;2.13;;;;;;;4.11;75.97;99281.34;5114087;28;20040;-65
2023/03/05 07:46:34;;;;;;;2.28;1.15;;;;;;;4.20;76.17;99286.56;5113652;28;20119;-65
2023/03/05 07:49:04;;;;;;;1.45;0.88;;;;;;;4.30;75.61;99282.50;5113425;28;20047;-65
2023/03/05 07:51:33;;;;;;;1.73;1.63;;;;;;;4.31;75.67;99280.03;5112808;28;20067;-65
2023/03/05 07:54:02;;;;;;;1.98;1.48;;;;;;;4.35;75.08;99280.91;5113439;28;20056;-65
2023/03/05 07:56:34;;;;;;;1.23;1.15;;;;;;;4.40;75.22;99276.81;5114298;28;20358;-65
2023/03/05 07:59:06;;;;;;;0.40;0.40;;;;;;;4.50;74.82;99281.19;5113611;28;20043;-65
2023/03/05 08:01:36;;;;;;;0.75;0.70;;;;;;;4.54;74.34;99272.81;5113599;28;20135;-65
2023/03/05 08:04:09;;;;;;;0.40;0.40;;;;;;;4.59;73.39;99271.22;5113587;28;20054;-65
2023/03/05 08:06:40;;;;;;;0.80;0.80;;;;;;;4.58;73.88;99267.84;5113432;28;20130;-65
2023/03/05 08:09:09;;;;;;;1.40;1.20;;;;;;;4.63;73.29;99275.53;5113637;28;20097;-65
2023/03/05 08:11:39;;;;;;;1.17;1.10;;;;;;;4.64;72.83;99274.69;5113225;28;20134;-65
2023/03/05 08:14:08;;;;;;;2.15;1.95;;;;;;;4.63;72.42;99273.00;5114901;28;20050;-65
2023/03/05 08:16:36;;;;;;;6.57;1.27;;;;;;;4.63;73.10;99273.00;5117571;28;20362;-65
2023/03/05 08:19:07;;;;;;;0.30;0.30;;;;;;;4.61;71.98;99275.47;5117591;28;20074;-65
2023/03/05 08:21:36;;;;;;;0.52;0.52;;;;;;;4.58;72.79;99272.06;5117199;28;20052;-65
2023/03/05 08:24:06;;;;;;;;;;;;;;;4.54;72.17;99272.81;5117827;28;20108;-66
2023/03/05 08:26:36;;;;;;;;;;;;;;;4.51;72.90;99278.69;5117527;28;19927;-66
2023/03/05 08:29:05;;;;;;;0.88;0.82;;;;;;;4.51;73.29;99275.31;5117001;28;19931;-66
2023/03/05 08:31:34;;;;;;;0.50;0.50;;;;;;;4.54;73.17;99272.81;5116980;28;20561;-66
2023/03/05 08:34:04;;;;;;;;;;;;;;;4.50;73.89;99271.94;5117136;28;20047;-66
2023/03/05 08:36:34;;;;;;;0.35;0.35;;;;;;;4.42;74.43;99272.63;5116694;28;19954;-66
2023/03/05 08:39:05;;;;;;;1.05;1.02;;;;;;;4.37;75.14;99264.09;5117071;28;20044;-66
2023/03/05 08:41:34;;;;;;;0.40;0.40;;;;;;;4.35;74.68;99263.25;5117082;28;20409;-66
2023/03/05 08:44:03;;;;;;;1.65;1.55;;;;;;;4.37;75.12;99261.59;5116753;28;20053;-66
2023/03/05 08:46:32;;;;;;;0.40;0.40;;;;;;;4.36;75.32;99267.47;5116638;28;20032;-66
2023/03/05 08:49:01;;;;;;;1.43;1.33;;;;;;;4.34;75.83;99261.56;5116682;28;20123;-66
2023/03/05 08:51:30;;;;;;;0.65;0.65;;;;;;;4.36;76.35;99270.88;5116472;28;20286;-66
2023/03/05 08:54:00;;;;;;;0.93;0.70;;;;;;;4.40;76.75;99259.97;5116770;28;20042;-66
2023/03/05 08:56:30;;;;;;;1.05;0.98;;;;;;;4.44;76.83;99260.91;5116472;28;20071;-66
2023/03/05 08:58:59;;;;;;;0.98;0.98;;;;;;;4.54;77.07;99262.72;5116418;28;20048;-66
2023/03/05 09:01:28;;;;;;;0.63;0.63;;;;;;;4.58;77.57;99257.72;5116676;28;20461;-66
2023/03/05 09:03:57;;;;;;;0.43;0.43;;;;;;;4.61;77.29;99254.41;5116614;28;20043;-66
2023/03/05 09:06:28;;;;;;;1.08;0.98;;;;;;;4.65;76.64;99251.13;5116619;28;20048;-65
2023/03/05 09:08:57;;;;;;;0.40;0.40;;;;;;;4.66;77.12;99252.81;5116229;28;20067;-66
2023/03/05 09:11:27;;;;;;;1.50;1.40;;;;;;;4.69;76.75;99252.88;5116159;28;20087;-66
2023/03/05 09:13:56;;;;;;;0.60;0.60;;;;;;;4.72;76.66;99247.88;5116003;28;20528;-66
2023/03/05 09:16:25;;;;;;;0.52;0.52;;;;;;;4.73;76.68;99247.03;5116937;28;20047;-66
2023/03/05 09:18:54;;;;;;;0.60;0.60;;;;;;;4.70;76.79;99254.56;5116393;28;20122;-65
2023/03/05 09:21:22;;;;;;;0.77;0.77;;;;;;;4.65;76.54;99248.59;5115944;28;20039;-65
2023/03/05 09:23:52;;;;;;;3.40;1.33;;;;;;;4.63;75.57;99245.22;5116310;28;20031;-66
2023/03/05 09:26:20;;;;;;;0.60;0.55;;;;;;;4.60;75.53;99247.69;5115949;28;20460;-66
2023/03/05 09:28:51;;;;;;;0.97;0.93;;;;;;;4.63;74.89;99247.72;5116212;28;20039;-66
2023/03/05 09:31:19;;;;;;;0.55;0.55;;;;;;;4.57;74.50;99229.94;5115803;28;20063;-66
2023/03/05 09:33:49;;;;;;;0.43;0.43;;;;;;;4.70;74.53;99249.53;5116318;28;20445;-65
2023/03/05 09:36:21;;;;;;;1.15;1.15;;;;;;;4.66;74.55;99247.75;5115676;28;20089;-66
2023/03/05 09:38:50;;;;;;;0.93;0.93;;;;;;;4.66;74.45;99247.75;5115944;28;20071;-65
2023/03/05 09:41:30;;;;;;;0.50;0.50;;;;;;;4.66;74.14;99242.69;5115961;28;20402;-65
2023/03/05 09:44:10;;;;;;;0.30;0.30;;;;;;;4.59;73.92;99251.88;5114338;28;20039;-66
2023/03/05 09:46:51;;;;;;;1.42;1.33;;;;;;;4.61;74.30;99246.84;5114850;28;20079;-66
2023/03/05 09:49:31;;;;;;;1.77;1.67;;;;;;;4.65;73.83;99243.53;5115193;28;20048;-66
2023/03/05 09:52:07;;;;;;;0.63;0.63;;;;;;;4.65;74.68;99246.91;5115504;28;20047;-66
2023/03/05 09:54:41;;;;;;;1.75;1.63;;;;;;;4.65;74.73;99246.91;5115278;28;20054;-66
2023/03/05 09:57:17;;;;;;;0.85;0.85;;;;;;;4.64;75.16;99239.31;5114849;28;20118;-66
2023/03/05 09:59:50;;;;;;;0.28;0.28;;;;;;;4.66;75.10;99230.91;5114992;28;20127;-66
2023/03/05 10:02:25;;;;;;;0.32;0.32;;;;;;;4.66;75.29;99243.56;5115101;28;20071;-65
2023/03/05 10:05:02;;;;;;;0.68;0.65;;;;;;;4.64;75.82;99241.84;5114968;28;20047;-66
2023/03/05 10:07:34;;;;;;;0.30;0.30;;;;;;;4.61;75.82;99239.25;5115022;28;20066;-66
2023/03/05 10:10:06;;;;;;;1.65;1.35;;;;;;;4.55;75.55;99234.97;5114958;28;20050;-66
2023/03/05 10:12:41;;;;;;;0.43;0.43;;;;;;;4.48;75.98;99225.59;5114624;28;20048;-66
2023/03/05 10:15:19;;;;;;;0.40;0.40;;;;;;;4.46;76.43;99239.03;5114808;28;20077;-66
2023/03/05 10:18:04;;;;;;;0.32;0.32;;;;;;;4.46;76.25;99233.97;5114787;28;20051;-66
2023/03/05 10:20:55;;;;;;;2.40;1.05;;;;;;;4.54;76.20;99237.44;5114685;28;20084;-67
2023/03/05 10:23:37;;;;;;;0.57;0.57;;;;;;;4.50;76.34;99220.56;5113742;28;20130;-68
2023/03/05 10:26:18;;;;;;;0.65;0.65;;;;;;;4.57;76.43;99232.47;5114992;28;20390;-67
2023/03/05 10:28:53;;;;;;;1.33;0.75;;;;;;;4.58;76.48;99236.69;5115027;28;20404;-67
2023/03/05 10:31:43;;;;;;;1.33;1.23;;;;;;;4.60;76.06;99232.50;5114611;28;20458;-68
2023/03/05 10:34:32;;;;;;;3.60;1.42;;;;;;;4.60;76.30;99232.50;5114423;28;20492;-67
2023/03/05 10:37:19;;;;;;;0.60;0.60;;;;;;;4.57;76.07;99228.25;5113901;28;20043;-67
2023/03/05 10:39:58;;;;;;;2.05;1.95;;;;;;;4.58;76.96;99219.00;5114498;28;20066;-67
2023/03/05 10:42:34;;;;;;;0.77;0.77;;;;;;;4.60;76.63;99222.41;5114916;27;20493;-67
2023/03/05 10:45:15;;;;;;;0.75;0.75;;;;;;;4.63;77.43;99217.41;5114227;28;20071;-67
2023/03/05 10:47:52;;;;;;;0.75;0.75;;;;;;;4.64;77.43;99214.03;5114743;28;20039;-67
2023/03/05 10:50:23;;;;;;;0.93;0.80;;;;;;;4.71;77.05;99214.16;5114102;28;20499;-67
2023/03/05 10:53:05;;;;;;;1.17;0.95;;;;;;;4.81;77.23;99207.56;5114199;28;20071;-67
2023/03/05 10:55:34;;;;;;;1.85;1.75;;;;;;;4.88;77.50;99203.44;5114347;28;20130;-67
2023/03/05 10:58:12;;;;;;;5.53;1.27;;;;;;;4.96;77.52;99201.88;5113298;28;20057;-67
2023/03/05 11:00:57;;;;;;;1.25;1.17;;;;;;;5.00;76.69;99199.41;5114461;28;20142;-67
2023/03/05 11:03:47;;;;;;;2.20;1.95;;;;;;;5.04;76.36;99206.19;5114517;28;20047;-67
2023/03/05 11:06:28;;;;;;;0.55;0.55;;;;;;;5.06;76.38;99204.53;5113981;28;20131;-67
2023/03/05 11:09:14;;;;;;;0.70;0.70;;;;;;;5.06;75.78;99208.75;5114062;28;20071;-67
2023/03/05 11:11:43;;;;;;;1.55;1.42;;;;;;;5.06;75.12;99193.59;5113694;28;20048;-67
2023/03/05 11:14:29;;;;;;;0.50;0.50;;;;;;;5.03;75.49;99191.88;5114263;28;20393;-67
2023/03/05 11:17:00;;;;;;;1.90;1.25;;;;;;;5.09;75.03;99194.44;5114249;28;20047;-66
2023/03/05 11:19:32;;;;;;;0.73;0.68;;;;;;;5.02;74.30;99180.03;5113828;28;20047;-66
2023/03/05 11:22:14;;;;;;;0.70;0.70;;;;;;;5.00;73.97;99171.59;5114258;28;20122;-66
2023/03/05 11:24:45;;;;;;;0.20;0.20;;;;;;;5.03;73.79;99184.28;5114127;28;20051;-66
2023/03/05 11:27:31;;;;;;;0.70;0.70;;;;;;;4.95;73.47;99169.81;5112730;28;20560;-66
2023/03/05 11:30:00;;;;;;;1.10;1.05;;;;;;;4.90;73.43;99176.47;5114028;28;20052;-66
2023/03/05 11:32:30;;;;;;;3.03;1.88;;;;;;;4.88;73.13;99178.16;5113785;28;20040;-66
2023/03/05 11:35:01;;;;;;;2.65;1.55;;;;;;;4.89;72.93;99188.31;5113970;28;20388;-66
2023/03/05 11:37:31;;;;;;;2.13;1.95;;;;;;;4.79;72.65;99178.88;5114051;28;20459;-66
2023/03/05 11:40:19;;;;;;;0.65;0.65;;;;;;;4.68;72.12;99175.34;5113721;28;20039;-66
2023/03/05 11:42:55;;;;;;;0.50;0.50;;;;;;;4.63;72.40;99172.75;5113811;28;20061;-66
2023/03/05 11:45:26;;;;;;;0.32;0.32;;;;;;;4.60;72.16;99167.66;5113628;28;20043;-66
2023/03/05 11:47:59;;;;;;;0.40;0.40;;;;;;;4.64;71.32;99169.41;5115260;28;20073;-65
2023/03/05 11:50:31;;;;;;;0.30;0.30;;;;;;;4.78;71.82;99166.22;5117873;28;20516;-66
2023/03/05 11:53:05;;;;;;;0.40;0.40;;;;;;;4.81;71.22;99156.16;5117607;28;20047;-66
2023/03/05 11:55:40;;;;;;;0.68;0.50;;;;;;;4.87;70.91;99159.59;5117693;28;20066;-66
2023/03/05 11:58:26;;;;;;;0.55;0.40;;;;;;;4.97;70.61;99161.41;5117870;28;20508;-66
2023/03/05 12:00:56;;;;;;;0.40;0.40;;;;;;;5.05;70.37;99156.47;5117625;28;20062;-66
2023/03/05 12:03:29;;;;;;;0.40;0.40;;;;;;;5.14;70.05;99154.91;5117568;28;20089;-65